sensor_id;sensor_type;location;lat;lon;timestamp;pressure;altitude;pressure_sealevel;temperature;humidity
48862;BME280;34681;49.188;-0.374;2022-11-24T00:01:56;100304.31;;;10.49;70.32
48862;BME280;34681;49.188;-0.374;2022-11-24T00:04:22;100307.59;;;10.53;70.16
48862;BME280;34681;49.188;-0.374;2022-11-24T00:06:47;100323.28;;;10.51;70.33
48862;BME280;34681;49.188;-0.374;2022-11-24T00:09:12;100320.78;;;10.39;70.89
48862;BME280;34681;49.188;-0.374;2022-11-24T00:11:38;100322.69;;;10.39;70.85
48862;BME280;34681;49.188;-0.374;2022-11-24T00:14:04;100319.00;;;10.30;71.54
48862;BME280;34681;49.188;-0.374;2022-11-24T00:16:32;100318.84;;;10.32;71.64
48862;BME280;34681;49.188;-0.374;2022-11-24T00:19:00;100333.22;;;10.34;71.81
48862;BME280;34681;49.188;-0.374;2022-11-24T00:21:28;100339.94;;;10.39;71.68
48862;BME280;34681;49.188;-0.374;2022-11-24T00:23:53;100338.38;;;10.37;71.77
48862;BME280;34681;49.188;-0.374;2022-11-24T00:26:21;100336.09;;;10.50;71.42
48862;BME280;34681;49.188;-0.374;2022-11-24T00:28:49;100335.84;;;10.26;72.27
48862;BME280;34681;49.188;-0.374;2022-11-24T00:31:20;100339.69;;;10.33;72.22
48862;BME280;34681;49.188;-0.374;2022-11-24T00:33:47;100332.63;;;10.12;73.04
48862;BME280;34681;49.188;-0.374;2022-11-24T00:36:14;100327.31;;;10.11;73.22
48862;BME280;34681;49.188;-0.374;2022-11-24T00:38:40;100331.06;;;10.10;73.30
48862;BME280;34681;49.188;-0.374;2022-11-24T00:41:06;100340.34;;;10.17;73.11
48862;BME280;34681;49.188;-0.374;2022-11-24T00:43:32;100342.78;;;10.20;72.97
48862;BME280;34681;49.188;-0.374;2022-11-24T00:45:57;100351.13;;;10.28;72.57
48862;BME280;34681;49.188;-0.374;2022-11-24T00:48:23;100350.91;;;10.12;72.77
48862;BME280;34681;49.188;-0.374;2022-11-24T00:50:59;100357.94;;;10.14;73.00
48862;BME280;34681;49.188;-0.374;2022-11-24T00:53:25;100361.75;;;10.22;72.63
48862;BME280;34681;49.188;-0.374;2022-11-24T00:55:51;100364.22;;;10.25;72.65
48862;BME280;34681;49.188;-0.374;2022-11-24T00:58:16;100355.75;;;10.18;72.97
48862;BME280;34681;49.188;-0.374;2022-11-24T01:00:42;100368.25;;;10.21;72.77
48862;BME280;34681;49.188;-0.374;2022-11-24T01:03:07;100371.06;;;10.11;73.22
48862;BME280;34681;49.188;-0.374;2022-11-24T01:05:36;100372.28;;;10.17;73.20
48862;BME280;34681;49.188;-0.374;2022-11-24T01:08:02;100378.63;;;10.17;73.14
48862;BME280;34681;49.188;-0.374;2022-11-24T01:10:28;100388.16;;;10.13;72.98
48862;BME280;34681;49.188;-0.374;2022-11-24T01:12:53;100393.63;;;9.85;74.20
48862;BME280;34681;49.188;-0.374;2022-11-24T01:15:19;100400.28;;;10.01;74.29
48862;BME280;34681;49.188;-0.374;2022-11-24T01:17:44;100412.00;;;9.93;74.45
48862;BME280;34681;49.188;-0.374;2022-11-24T01:20:11;100413.94;;;10.10;74.06
48862;BME280;34681;49.188;-0.374;2022-11-24T01:22:37;100411.53;;;10.35;72.96
48862;BME280;34681;49.188;-0.374;2022-11-24T01:25:09;100411.88;;;10.22;73.01
48862;BME280;34681;49.188;-0.374;2022-11-24T01:27:35;100410.84;;;10.23;73.15
48862;BME280;34681;49.188;-0.374;2022-11-24T01:30:00;100408.31;;;10.39;72.48
48862;BME280;34681;49.188;-0.374;2022-11-24T01:32:26;100411.53;;;10.35;72.13
48862;BME280;34681;49.188;-0.374;2022-11-24T01:34:51;100420.69;;;10.44;71.96
48862;BME280;34681;49.188;-0.374;2022-11-24T01:37:17;100417.94;;;10.44;72.03
48862;BME280;34681;49.188;-0.374;2022-11-24T01:39:42;100431.41;;;10.18;72.86
48862;BME280;34681;49.188;-0.374;2022-11-24T01:42:07;100432.31;;;10.18;73.11
48862;BME280;34681;49.188;-0.374;2022-11-24T01:44:33;100444.75;;;10.03;73.10
48862;BME280;34681;49.188;-0.374;2022-11-24T01:46:59;100450.22;;;10.03;73.48
48862;BME280;34681;49.188;-0.374;2022-11-24T01:49:44;100463.63;;;9.96;73.93
48862;BME280;34681;49.188;-0.374;2022-11-24T01:52:55;100477.97;;;9.98;74.03
48862;BME280;34681;49.188;-0.374;2022-11-24T01:55:05;100476.75;;;10.20;73.39
48862;BME280;34681;49.188;-0.374;2022-11-24T01:57:39;100463.66;;;10.24;73.26
48862;BME280;34681;49.188;-0.374;2022-11-24T02:00:08;100482.06;;;10.22;73.53
48862;BME280;34681;49.188;-0.374;2022-11-24T02:02:34;100480.75;;;10.35;73.29
48862;BME280;34681;49.188;-0.374;2022-11-24T02:05:24;100477.03;;;10.54;72.44
48862;BME280;34681;49.188;-0.374;2022-11-24T02:07:51;100488.47;;;10.40;72.95
48862;BME280;34681;49.188;-0.374;2022-11-24T02:10:18;100489.75;;;10.46;72.76
48862;BME280;34681;49.188;-0.374;2022-11-24T02:12:46;100488.03;;;10.45;72.56
48862;BME280;34681;49.188;-0.374;2022-11-24T02:15:16;100487.97;;;10.54;72.27
48862;BME280;34681;49.188;-0.374;2022-11-24T02:17:42;100500.13;;;10.42;72.31
48862;BME280;34681;49.188;-0.374;2022-11-24T02:20:09;100496.06;;;10.19;72.94
48862;BME280;34681;49.188;-0.374;2022-11-24T02:22:50;100511.44;;;10.20;73.00
48862;BME280;34681;49.188;-0.374;2022-11-24T02:26:00;100504.53;;;10.25;72.56
48862;BME280;34681;49.188;-0.374;2022-11-24T02:28:22;100513.59;;;10.16;73.06
48862;BME280;34681;49.188;-0.374;2022-11-24T02:30:50;100517.34;;;10.15;73.19
48862;BME280;34681;49.188;-0.374;2022-11-24T02:33:16;100521.25;;;10.22;72.85
48862;BME280;34681;49.188;-0.374;2022-11-24T02:35:43;100519.81;;;10.08;73.31
48862;BME280;34681;49.188;-0.374;2022-11-24T02:38:12;100529.19;;;10.06;73.20
48862;BME280;34681;49.188;-0.374;2022-11-24T02:40:39;100536.53;;;10.05;73.45
48862;BME280;34681;49.188;-0.374;2022-11-24T02:43:10;100528.91;;;9.99;73.65
48862;BME280;34681;49.188;-0.374;2022-11-24T02:45:37;100541.00;;;9.97;73.73
48862;BME280;34681;49.188;-0.374;2022-11-24T02:48:03;100541.88;;;9.97;73.79
48862;BME280;34681;49.188;-0.374;2022-11-24T02:50:29;100550.78;;;9.99;73.86
48862;BME280;34681;49.188;-0.374;2022-11-24T02:52:54;100560.56;;;9.92;74.13
48862;BME280;34681;49.188;-0.374;2022-11-24T02:55:19;100563.88;;;9.96;73.85
48862;BME280;34681;49.188;-0.374;2022-11-24T02:57:45;100555.25;;;9.91;74.04
48862;BME280;34681;49.188;-0.374;2022-11-24T03:00:11;100552.75;;;10.07;73.92
48862;BME280;34681;49.188;-0.374;2022-11-24T03:02:37;100564.00;;;10.04;73.64
48862;BME280;34681;49.188;-0.374;2022-11-24T03:05:02;100568.78;;;10.02;73.81
48862;BME280;34681;49.188;-0.374;2022-11-24T03:07:28;100571.75;;;10.08;73.76
48862;BME280;34681;49.188;-0.374;2022-11-24T03:09:53;100573.31;;;10.30;73.00
48862;BME280;34681;49.188;-0.374;2022-11-24T03:12:18;100589.13;;;10.17;73.16
48862;BME280;34681;49.188;-0.374;2022-11-24T03:14:44;100597.53;;;9.96;73.77
48862;BME280;34681;49.188;-0.374;2022-11-24T03:17:09;100590.06;;;9.89;74.41
48862;BME280;34681;49.188;-0.374;2022-11-24T03:19:34;100592.69;;;9.61;75.12
48862;BME280;34681;49.188;-0.374;2022-11-24T03:22:00;100591.66;;;9.72;75.13
48862;BME280;34681;49.188;-0.374;2022-11-24T03:24:25;100591.38;;;9.94;74.59
48862;BME280;34681;49.188;-0.374;2022-11-24T03:26:52;100593.25;;;9.94;74.29
48862;BME280;34681;49.188;-0.374;2022-11-24T03:29:17;100601.44;;;9.94;74.67
48862;BME280;34681;49.188;-0.374;2022-11-24T03:31:42;100597.53;;;9.96;74.53
48862;BME280;34681;49.188;-0.374;2022-11-24T03:34:08;100588.63;;;9.94;74.65
48862;BME280;34681;49.188;-0.374;2022-11-24T03:36:33;100595.22;;;10.11;73.98
48862;BME280;34681;49.188;-0.374;2022-11-24T03:38:58;100596.09;;;9.82;74.70
48862;BME280;34681;49.188;-0.374;2022-11-24T03:41:24;100600.16;;;9.78;75.32
48862;BME280;34681;49.188;-0.374;2022-11-24T03:43:50;100607.19;;;9.81;75.46
48862;BME280;34681;49.188;-0.374;2022-11-24T03:46:15;100610.78;;;9.81;75.11
48862;BME280;34681;49.188;-0.374;2022-11-24T03:48:40;100616.56;;;9.78;75.24
48862;BME280;34681;49.188;-0.374;2022-11-24T03:51:06;100610.06;;;9.79;75.48
48862;BME280;34681;49.188;-0.374;2022-11-24T03:53:32;100609.91;;;9.91;75.02
48862;BME280;34681;49.188;-0.374;2022-11-24T03:55:58;100614.66;;;9.98;74.47
48862;BME280;34681;49.188;-0.374;2022-11-24T03:58:24;100614.97;;;9.85;74.76
48862;BME280;34681;49.188;-0.374;2022-11-24T04:00:51;100609.03;;;9.90;74.55
48862;BME280;34681;49.188;-0.374;2022-11-24T04:03:17;100617.97;;;9.92;74.59
48862;BME280;34681;49.188;-0.374;2022-11-24T04:05:44;100619.00;;;9.72;75.30
48862;BME280;34681;49.188;-0.374;2022-11-24T04:08:09;100626.63;;;9.78;75.09
48862;BME280;34681;49.188;-0.374;2022-11-24T04:10:37;100628.75;;;9.65;75.79
48862;BME280;34681;49.188;-0.374;2022-11-24T04:13:04;100629.63;;;9.65;75.67
48862;BME280;34681;49.188;-0.374;2022-11-24T04:15:34;100633.50;;;9.82;75.34
48862;BME280;34681;49.188;-0.374;2022-11-24T04:17:59;100624.47;;;9.72;75.55
48862;BME280;34681;49.188;-0.374;2022-11-24T04:20:24;100634.66;;;9.79;75.42
48862;BME280;34681;49.188;-0.374;2022-11-24T04:22:50;100630.50;;;9.85;75.38
48862;BME280;34681;49.188;-0.374;2022-11-24T04:25:18;100638.41;;;9.88;75.20
48862;BME280;34681;49.188;-0.374;2022-11-24T04:27:43;100632.91;;;10.07;74.44
48862;BME280;34681;49.188;-0.374;2022-11-24T04:30:09;100639.97;;;9.91;75.35
48862;BME280;34681;49.188;-0.374;2022-11-24T04:32:35;100645.41;;;10.00;75.10
48862;BME280;34681;49.188;-0.374;2022-11-24T04:35:02;100645.72;;;10.26;74.37
48862;BME280;34681;49.188;-0.374;2022-11-24T04:37:27;100651.31;;;10.34;73.80
48862;BME280;34681;49.188;-0.374;2022-11-24T04:39:53;100657.94;;;10.12;74.56
48862;BME280;34681;49.188;-0.374;2022-11-24T04:42:19;100661.72;;;10.02;75.30
48862;BME280;34681;49.188;-0.374;2022-11-24T04:44:45;100665.13;;;10.13;75.14
48862;BME280;34681;49.188;-0.374;2022-11-24T04:47:19;100656.66;;;10.36;74.67
48862;BME280;34681;49.188;-0.374;2022-11-24T04:49:48;100660.22;;;10.46;74.31
48862;BME280;34681;49.188;-0.374;2022-11-24T04:52:15;100662.25;;;10.25;74.64
48862;BME280;34681;49.188;-0.374;2022-11-24T04:54:40;100660.66;;;10.32;74.60
48862;BME280;34681;49.188;-0.374;2022-11-24T04:57:06;100665.69;;;10.46;73.87
48862;BME280;34681;49.188;-0.374;2022-11-24T04:59:31;100664.09;;;10.53;73.41
48862;BME280;34681;49.188;-0.374;2022-11-24T05:01:57;100660.53;;;10.43;73.64
48862;BME280;34681;49.188;-0.374;2022-11-24T05:04:22;100661.63;;;10.50;73.56
48862;BME280;34681;49.188;-0.374;2022-11-24T05:06:47;100655.66;;;10.74;72.31
48862;BME280;34681;49.188;-0.374;2022-11-24T05:09:15;100657.41;;;10.65;72.48
48862;BME280;34681;49.188;-0.374;2022-11-24T05:11:41;100658.09;;;10.77;71.70
48862;BME280;34681;49.188;-0.374;2022-11-24T05:14:06;100660.97;;;10.76;71.46
48862;BME280;34681;49.188;-0.374;2022-11-24T05:16:32;100671.59;;;10.51;72.31
48862;BME280;34681;49.188;-0.374;2022-11-24T05:18:57;100661.69;;;10.31;72.57
48862;BME280;34681;49.188;-0.374;2022-11-24T05:21:22;100668.84;;;10.41;72.18
48862;BME280;34681;49.188;-0.374;2022-11-24T05:23:48;100661.22;;;10.45;72.12
48862;BME280;34681;49.188;-0.374;2022-11-24T05:26:13;100657.66;;;10.35;72.41
48862;BME280;34681;49.188;-0.374;2022-11-24T05:28:39;100659.69;;;10.23;73.02
48862;BME280;34681;49.188;-0.374;2022-11-24T05:31:04;100661.09;;;10.37;72.19
48862;BME280;34681;49.188;-0.374;2022-11-24T05:33:30;100663.41;;;10.32;71.99
48862;BME280;34681;49.188;-0.374;2022-11-24T05:36:02;100663.88;;;10.27;72.06
48862;BME280;34681;49.188;-0.374;2022-11-24T05:38:27;100670.47;;;10.25;72.07
48862;BME280;34681;49.188;-0.374;2022-11-24T05:40:58;100673.78;;;10.19;72.21
48862;BME280;34681;49.188;-0.374;2022-11-24T05:43:24;100675.94;;;9.86;72.88
48862;BME280;34681;49.188;-0.374;2022-11-24T05:45:49;100676.81;;;9.77;73.56
48862;BME280;34681;49.188;-0.374;2022-11-24T05:48:15;100673.19;;;9.67;73.92
48862;BME280;34681;49.188;-0.374;2022-11-24T05:50:40;100671.31;;;9.67;74.21
48862;BME280;34681;49.188;-0.374;2022-11-24T05:53:11;100675.22;;;9.94;73.57
48862;BME280;34681;49.188;-0.374;2022-11-24T05:55:38;100673.47;;;9.93;73.60
48862;BME280;34681;49.188;-0.374;2022-11-24T05:58:05;100680.97;;;9.91;73.73
48862;BME280;34681;49.188;-0.374;2022-11-24T06:00:32;100685.00;;;9.77;73.80
48862;BME280;34681;49.188;-0.374;2022-11-24T06:02:59;100694.34;;;9.74;74.24
48862;BME280;34681;49.188;-0.374;2022-11-24T06:05:25;100697.81;;;10.05;73.04
48862;BME280;34681;49.188;-0.374;2022-11-24T06:07:50;100701.09;;;10.09;73.05
48862;BME280;34681;49.188;-0.374;2022-11-24T06:10:17;100702.97;;;9.99;73.26
48862;BME280;34681;49.188;-0.374;2022-11-24T06:12:43;100708.47;;;10.18;72.12
48862;BME280;34681;49.188;-0.374;2022-11-24T06:15:09;100706.13;;;9.84;73.04
48862;BME280;34681;49.188;-0.374;2022-11-24T06:17:35;100706.72;;;9.69;74.20
48862;BME280;34681;49.188;-0.374;2022-11-24T06:20:01;100715.47;;;9.92;73.78
48862;BME280;34681;49.188;-0.374;2022-11-24T06:22:26;100708.28;;;9.91;74.06
48862;BME280;34681;49.188;-0.374;2022-11-24T06:24:52;100707.44;;;10.00;74.09
48862;BME280;34681;49.188;-0.374;2022-11-24T06:27:17;100704.44;;;10.03;73.89
48862;BME280;34681;49.188;-0.374;2022-11-24T06:29:43;100699.97;;;10.02;73.76
48862;BME280;34681;49.188;-0.374;2022-11-24T06:32:09;100698.81;;;9.95;74.13
48862;BME280;34681;49.188;-0.374;2022-11-24T06:34:34;100691.59;;;9.84;74.56
48862;BME280;34681;49.188;-0.374;2022-11-24T06:37:00;100693.63;;;9.72;75.00
48862;BME280;34681;49.188;-0.374;2022-11-24T06:39:25;100694.78;;;9.79;74.97
48862;BME280;34681;49.188;-0.374;2022-11-24T06:41:51;100696.66;;;9.89;74.85
48862;BME280;34681;49.188;-0.374;2022-11-24T06:44:17;100697.50;;;9.79;75.12
48862;BME280;34681;49.188;-0.374;2022-11-24T06:46:43;100706.56;;;9.70;75.47
48862;BME280;34681;49.188;-0.374;2022-11-24T06:49:08;100705.28;;;10.13;73.87
48862;BME280;34681;49.188;-0.374;2022-11-24T06:51:33;100701.69;;;10.03;74.18
48862;BME280;34681;49.188;-0.374;2022-11-24T06:53:59;100707.31;;;10.11;73.77
48862;BME280;34681;49.188;-0.374;2022-11-24T06:56:25;100712.47;;;10.04;73.66
48862;BME280;34681;49.188;-0.374;2022-11-24T06:58:52;100717.34;;;9.72;74.98
48862;BME280;34681;49.188;-0.374;2022-11-24T07:01:22;100725.56;;;9.81;74.66
48862;BME280;34681;49.188;-0.374;2022-11-24T07:03:49;100720.09;;;9.81;74.79
48862;BME280;34681;49.188;-0.374;2022-11-24T07:06:16;100734.63;;;9.82;74.22
48862;BME280;34681;49.188;-0.374;2022-11-24T07:08:42;100732.31;;;9.77;74.88
48862;BME280;34681;49.188;-0.374;2022-11-24T07:11:11;100729.75;;;9.95;74.50
48862;BME280;34681;49.188;-0.374;2022-11-24T07:13:37;100725.56;;;9.81;74.54
48862;BME280;34681;49.188;-0.374;2022-11-24T07:16:29;100727.56;;;9.60;75.03
48862;BME280;34681;49.188;-0.374;2022-11-24T07:18:55;100738.34;;;9.62;75.32
48862;BME280;34681;49.188;-0.374;2022-11-24T07:21:22;100734.91;;;9.69;75.39
48862;BME280;34681;49.188;-0.374;2022-11-24T07:23:49;100736.78;;;9.69;75.05
48862;BME280;34681;49.188;-0.374;2022-11-24T07:26:15;100741.38;;;9.68;74.90
48862;BME280;34681;49.188;-0.374;2022-11-24T07:28:40;100738.50;;;9.79;74.91
48862;BME280;34681;49.188;-0.374;2022-11-24T07:31:12;100743.13;;;9.89;74.27
48862;BME280;34681;49.188;-0.374;2022-11-24T07:33:38;100744.69;;;9.81;74.61
48862;BME280;34681;49.188;-0.374;2022-11-24T07:36:04;100752.31;;;9.97;74.47
48862;BME280;34681;49.188;-0.374;2022-11-24T07:38:31;100736.34;;;9.83;74.60
48862;BME280;34681;49.188;-0.374;2022-11-24T07:41:08;100745.75;;;10.29;73.22
48862;BME280;34681;49.188;-0.374;2022-11-24T07:43:35;100746.28;;;10.13;73.82
48862;BME280;34681;49.188;-0.374;2022-11-24T07:46:00;100747.75;;;10.36;73.50
48862;BME280;34681;49.188;-0.374;2022-11-24T07:48:26;100757.50;;;10.58;72.93
48862;BME280;34681;49.188;-0.374;2022-11-24T07:50:51;100765.69;;;10.78;72.29
48862;BME280;34681;49.188;-0.374;2022-11-24T07:53:17;100763.97;;;10.67;72.50
48862;BME280;34681;49.188;-0.374;2022-11-24T07:55:43;100765.28;;;10.63;72.84
48862;BME280;34681;49.188;-0.374;2022-11-24T07:58:08;100770.00;;;10.80;72.26
48862;BME280;34681;49.188;-0.374;2022-11-24T08:00:34;100770.38;;;11.05;71.54
48862;BME280;34681;49.188;-0.374;2022-11-24T08:02:59;100773.81;;;11.07;71.44
48862;BME280;34681;49.188;-0.374;2022-11-24T08:05:25;100765.44;;;11.08;71.23
48862;BME280;34681;49.188;-0.374;2022-11-24T08:07:50;100766.88;;;11.12;70.96
48862;BME280;34681;49.188;-0.374;2022-11-24T08:10:16;100775.09;;;11.12;70.96
48862;BME280;34681;49.188;-0.374;2022-11-24T08:12:41;100774.44;;;11.01;71.04
48862;BME280;34681;49.188;-0.374;2022-11-24T08:15:07;100763.38;;;10.92;71.30
48862;BME280;34681;49.188;-0.374;2022-11-24T08:17:33;100769.00;;;10.81;71.54
48862;BME280;34681;49.188;-0.374;2022-11-24T08:19:59;100772.03;;;10.78;71.80
48862;BME280;34681;49.188;-0.374;2022-11-24T08:22:24;100773.47;;;10.73;71.81
48862;BME280;34681;49.188;-0.374;2022-11-24T08:24:50;100766.09;;;10.83;71.63
48862;BME280;34681;49.188;-0.374;2022-11-24T08:27:17;100764.53;;;10.80;71.75
48862;BME280;34681;49.188;-0.374;2022-11-24T08:29:44;100766.09;;;10.83;71.80
48862;BME280;34681;49.188;-0.374;2022-11-24T08:32:10;100763.47;;;10.91;71.72
48862;BME280;34681;49.188;-0.374;2022-11-24T08:34:36;100760.59;;;11.02;71.51
48862;BME280;34681;49.188;-0.374;2022-11-24T08:37:03;100760.97;;;11.07;71.61
48862;BME280;34681;49.188;-0.374;2022-11-24T08:39:28;100750.09;;;11.25;71.37
48862;BME280;34681;49.188;-0.374;2022-11-24T08:41:54;100748.03;;;11.37;71.29
48862;BME280;34681;49.188;-0.374;2022-11-24T08:44:19;100746.25;;;11.45;71.09
48862;BME280;34681;49.188;-0.374;2022-11-24T08:46:45;100754.00;;;11.50;70.91
48862;BME280;34681;49.188;-0.374;2022-11-24T08:49:10;100751.53;;;11.57;71.37
48862;BME280;34681;49.188;-0.374;2022-11-24T08:51:37;100753.25;;;11.58;71.42
48862;BME280;34681;49.188;-0.374;2022-11-24T08:54:03;100735.19;;;11.65;71.20
48862;BME280;34681;49.188;-0.374;2022-11-24T08:56:31;100740.47;;;11.76;71.00
48862;BME280;34681;49.188;-0.374;2022-11-24T08:58:57;100740.19;;;11.97;70.93
48862;BME280;34681;49.188;-0.374;2022-11-24T09:01:23;100732.81;;;11.97;70.79
48862;BME280;34681;49.188;-0.374;2022-11-24T09:03:49;100731.81;;;11.98;70.82
48862;BME280;34681;49.188;-0.374;2022-11-24T09:06:19;100725.09;;;12.11;70.65
48862;BME280;34681;49.188;-0.374;2022-11-24T09:08:46;100723.59;;;12.34;70.01
48862;BME280;34681;49.188;-0.374;2022-11-24T09:11:14;100723.50;;;12.26;70.33
48862;BME280;34681;49.188;-0.374;2022-11-24T09:13:40;100719.91;;;12.25;70.21
48862;BME280;34681;49.188;-0.374;2022-11-24T09:16:09;100717.47;;;12.22;70.98
48862;BME280;34681;49.188;-0.374;2022-11-24T09:18:35;100721.91;;;12.41;70.60
48862;BME280;34681;49.188;-0.374;2022-11-24T09:21:18;100720.03;;;12.24;71.13
48862;BME280;34681;49.188;-0.374;2022-11-24T09:23:46;100712.47;;;12.00;72.15
48862;BME280;34681;49.188;-0.374;2022-11-24T09:26:13;100722.09;;;12.22;71.78
48862;BME280;34681;49.188;-0.374;2022-11-24T09:28:39;100716.94;;;12.01;72.47
48862;BME280;34681;49.188;-0.374;2022-11-24T09:31:08;100712.66;;;12.24;71.88
48862;BME280;34681;49.188;-0.374;2022-11-24T09:33:33;100715.56;;;12.41;71.52
48862;BME280;34681;49.188;-0.374;2022-11-24T09:36:00;100713.53;;;12.43;71.54
48862;BME280;34681;49.188;-0.374;2022-11-24T09:38:25;100719.22;;;12.49;71.41
48862;BME280;34681;49.188;-0.374;2022-11-24T09:40:52;100730.97;;;12.59;71.46
48862;BME280;34681;49.188;-0.374;2022-11-24T09:43:33;100722.97;;;12.92;70.75
48862;BME280;34681;49.188;-0.374;2022-11-24T09:46:08;100720.28;;;13.00;70.74
48862;BME280;34681;49.188;-0.374;2022-11-24T09:48:38;100711.94;;;13.18;70.28
48862;BME280;34681;49.188;-0.374;2022-11-24T09:51:11;100709.38;;;13.16;70.50
48862;BME280;34681;49.188;-0.374;2022-11-24T09:53:41;100704.66;;;13.35;70.06
48862;BME280;34681;49.188;-0.374;2022-11-24T09:56:19;100699.94;;;13.19;70.63
48862;BME280;34681;49.188;-0.374;2022-11-24T10:03:43;100702.16;;;13.49;70.06
48862;BME280;34681;49.188;-0.374;2022-11-24T10:08:52;100693.09;;;13.23;70.70
48862;BME280;34681;49.188;-0.374;2022-11-24T10:14:14;100691.94;;;13.26;70.72
48862;BME280;34681;49.188;-0.374;2022-11-24T10:16:53;100684.19;;;13.29;70.74
48862;BME280;34681;49.188;-0.374;2022-11-24T10:22:08;100697.97;;;13.37;70.31
48862;BME280;34681;49.188;-0.374;2022-11-24T10:27:32;100686.16;;;13.45;70.45
48862;BME280;34681;49.188;-0.374;2022-11-24T10:29:59;100682.19;;;13.47;70.43
48862;BME280;34681;49.188;-0.374;2022-11-24T10:32:30;100683.25;;;13.55;70.28
48862;BME280;34681;49.188;-0.374;2022-11-24T10:34:59;100685.16;;;13.54;70.45
48862;BME280;34681;49.188;-0.374;2022-11-24T10:37:42;100672.28;;;13.63;70.08
48862;BME280;34681;49.188;-0.374;2022-11-24T10:40:21;100672.81;;;13.66;70.12
48862;BME280;34681;49.188;-0.374;2022-11-24T10:42:48;100673.50;;;13.68;69.98
48862;BME280;34681;49.188;-0.374;2022-11-24T10:45:16;100665.94;;;13.70;70.11
48862;BME280;34681;49.188;-0.374;2022-11-24T10:47:43;100668.72;;;13.78;70.26
48862;BME280;34681;49.188;-0.374;2022-11-24T10:50:30;100668.72;;;13.87;69.65
48862;BME280;34681;49.188;-0.374;2022-11-24T10:53:20;100669.28;;;13.98;69.60
48862;BME280;34681;49.188;-0.374;2022-11-24T11:00:53;100660.13;;;14.39;68.80
48862;BME280;34681;49.188;-0.374;2022-11-24T11:03:24;100663.41;;;14.34;68.89
48862;BME280;34681;49.188;-0.374;2022-11-24T11:05:55;100657.22;;;14.32;68.93
48862;BME280;34681;49.188;-0.374;2022-11-24T11:10:51;100657.72;;;14.27;69.03
48862;BME280;34681;49.188;-0.374;2022-11-24T11:13:31;100647.59;;;14.12;69.66
48862;BME280;34681;49.188;-0.374;2022-11-24T11:15:57;100656.03;;;14.26;69.46
48862;BME280;34681;49.188;-0.374;2022-11-24T11:18:30;100647.59;;;14.20;69.43
48862;BME280;34681;49.188;-0.374;2022-11-24T11:20:58;100639.00;;;13.98;70.48
48862;BME280;34681;49.188;-0.374;2022-11-24T11:23:35;100626.13;;;13.91;70.51
48862;BME280;34681;49.188;-0.374;2022-11-24T11:31:25;100603.41;;;13.89;71.18
48862;BME280;34681;49.188;-0.374;2022-11-24T11:34:00;100602.22;;;14.16;70.40
48862;BME280;34681;49.188;-0.374;2022-11-24T11:36:27;100602.88;;;14.18;70.62
48862;BME280;34681;49.188;-0.374;2022-11-24T11:38:53;100599.75;;;14.37;70.10
48862;BME280;34681;49.188;-0.374;2022-11-24T11:41:31;100594.06;;;14.47;69.77
48862;BME280;34681;49.188;-0.374;2022-11-24T11:44:12;100599.44;;;14.48;69.93
48862;BME280;34681;49.188;-0.374;2022-11-24T11:46:41;100596.66;;;14.65;69.49
48862;BME280;34681;49.188;-0.374;2022-11-24T11:49:10;100587.09;;;14.83;68.86
48862;BME280;34681;49.188;-0.374;2022-11-24T12:12:55;100553.84;;;14.29;70.64
48862;BME280;34681;49.188;-0.374;2022-11-24T12:15:38;100548.03;;;14.16;71.08
48862;BME280;34681;49.188;-0.374;2022-11-24T12:36:59;100521.22;;;14.74;69.07
48862;BME280;34681;49.188;-0.374;2022-11-24T12:42:36;100518.28;;;14.75;69.14
48862;BME280;34681;49.188;-0.374;2022-11-24T12:45:27;100506.00;;;14.86;69.28
48862;BME280;34681;49.188;-0.374;2022-11-24T12:48:33;100509.22;;;15.21;68.38
48862;BME280;34681;49.188;-0.374;2022-11-24T12:51:03;100508.00;;;15.00;68.76
48862;BME280;34681;49.188;-0.374;2022-11-24T12:53:32;100506.28;;;14.99;69.05
48862;BME280;34681;49.188;-0.374;2022-11-24T12:56:10;100501.06;;;15.04;68.86
48862;BME280;34681;49.188;-0.374;2022-11-24T12:59:11;100486.88;;;15.15;68.82
48862;BME280;34681;49.188;-0.374;2022-11-24T13:01:52;100488.22;;;15.20;68.67
48862;BME280;34681;49.188;-0.374;2022-11-24T13:04:33;100499.50;;;15.10;68.86
48862;BME280;34681;49.188;-0.374;2022-11-24T13:07:33;100491.03;;;14.80;69.48
48862;BME280;34681;49.188;-0.374;2022-11-24T13:13:06;100481.44;;;15.07;68.68
48862;BME280;34681;49.188;-0.374;2022-11-24T13:31:51;100458.34;;;15.31;68.32
48862;BME280;34681;49.188;-0.374;2022-11-24T13:39:53;100452.59;;;15.41;68.50
48862;BME280;34681;49.188;-0.374;2022-11-24T13:42:21;100461.91;;;15.40;68.57
48862;BME280;34681;49.188;-0.374;2022-11-24T13:45:03;100450.91;;;15.55;68.26
48862;BME280;34681;49.188;-0.374;2022-11-24T13:49:58;100439.72;;;15.33;68.67
48862;BME280;34681;49.188;-0.374;2022-11-24T13:52:43;100434.63;;;15.45;68.31
48862;BME280;34681;49.188;-0.374;2022-11-24T13:57:38;100433.28;;;15.41;68.45
48862;BME280;34681;49.188;-0.374;2022-11-24T14:02:50;100436.84;;;15.27;68.83
48862;BME280;34681;49.188;-0.374;2022-11-24T14:05:18;100439.97;;;15.24;68.92
48862;BME280;34681;49.188;-0.374;2022-11-24T14:07:48;100436.53;;;15.22;69.40
48862;BME280;34681;49.188;-0.374;2022-11-24T14:10:35;100424.84;;;14.97;70.10
48862;BME280;34681;49.188;-0.374;2022-11-24T14:13:30;100436.88;;;14.73;70.85
48862;BME280;34681;49.188;-0.374;2022-11-24T14:16:04;100439.84;;;14.63;70.99
48862;BME280;34681;49.188;-0.374;2022-11-24T14:18:31;100426.88;;;14.72;71.08
48862;BME280;34681;49.188;-0.374;2022-11-24T14:20:59;100426.69;;;14.81;70.94
48862;BME280;34681;49.188;-0.374;2022-11-24T14:23:25;100424.94;;;14.80;71.20
48862;BME280;34681;49.188;-0.374;2022-11-24T14:25:51;100423.00;;;14.66;71.69
48862;BME280;34681;49.188;-0.374;2022-11-24T14:28:23;100421.94;;;14.67;71.86
48862;BME280;34681;49.188;-0.374;2022-11-24T14:30:50;100417.38;;;14.51;72.37
48862;BME280;34681;49.188;-0.374;2022-11-24T14:33:18;100417.38;;;14.51;72.61
48862;BME280;34681;49.188;-0.374;2022-11-24T14:35:48;100408.59;;;14.48;72.82